Time;durP1;ratioP1;P1;durP2;ratioP2;P2;SDS_P1;SDS_P2;PMS_P1;PMS_P2;Temp;Humidity;BMP_temperature;BMP_pressure;BME280_temperature;BME280_humidity;BME280_pressure;Samples;Min_cycle;Max_cycle;Signal;HPM_P1;HPM_P2
2023/05/28 00:00:45;;;;;;;3.60;1.60;;;;;;;;;;5001855;28;20300;-59
2023/05/28 00:03:12;;;;;;;1.30;1.20;;;;;;;;;;5007707;28;20205;-59
2023/05/28 00:05:39;;;;;;;3.65;1.77;;;;;;;;;;4998415;28;20212;-59
2023/05/28 00:08:06;;;;;;;2.05;1.85;;;;;;;;;;5009126;28;20212;-59
2023/05/28 00:10:33;;;;;;;3.75;1.60;;;;;;;;;;4998835;28;20221;-59
2023/05/28 00:13:01;;;;;;;4.80;1.70;;;;;;;;;;4995794;28;20935;-59
2023/05/28 00:15:28;;;;;;;1.70;1.60;;;;;;;;;;4991987;28;20356;-59
2023/05/28 00:17:57;;;;;;;2.15;1.55;;;;;;;;;;5001418;28;20240;-59
2023/05/28 00:20:25;;;;;;;2.75;1.50;;;;;;;;;;5007218;28;20221;-58
2023/05/28 00:22:52;;;;;;;4.88;1.67;;;;;;;;;;4998777;28;20213;-59
2023/05/28 00:25:19;;;;;;;1.92;1.70;;;;;;;;;;4997571;28;20647;-59
2023/05/28 00:27:46;;;;;;;1.90;1.63;;;;;;;;;;5003235;28;20209;-60
2023/05/28 00:30:13;;;;;;;3.40;1.98;;;;;;;;;;5008871;28;20263;-59
2023/05/28 00:32:40;;;;;;;1.65;1.58;;;;;;;;;;5005887;28;20217;-60
2023/05/28 00:35:09;;;;;;;1.77;1.67;;;;;;;;;;4990880;28;20256;-60
2023/05/28 00:37:36;;;;;;;3.90;1.45;;;;;;;;;;4991368;28;20272;-60
2023/05/28 00:40:03;;;;;;;3.22;1.48;;;;;;;;;;5008597;28;20263;-60
2023/05/28 00:42:30;;;;;;;1.55;1.45;;;;;;;;;;5008674;28;20220;-60
2023/05/28 00:44:57;;;;;;;1.75;1.48;;;;;;;;;;5002796;28;20209;-59
2023/05/28 00:47:25;;;;;;;1.50;1.40;;;;;;;;;;4995937;28;20241;-60
2023/05/28 00:49:54;;;;;;;3.30;1.65;;;;;;;;;;5005319;28;20220;-60
2023/05/28 00:52:23;;;;;;;3.47;1.67;;;;;;;;;;5002901;28;20205;-59
2023/05/28 00:57:41;;;;;;;1.40;1.30;;;;;;;;;;5005944;28;20235;-60
2023/05/28 01:00:08;;;;;;;2.33;1.60;;;;;;;;;;5005025;28;20212;-59
2023/05/28 01:02:35;;;;;;;1.55;1.48;;;;;;;;;;5006724;28;20437;-60
2023/05/28 01:05:02;;;;;;;2.25;1.50;;;;;;;;;;4991284;28;20204;-59
2023/05/28 01:07:31;;;;;;;1.65;1.40;;;;;;;;;;4995044;28;20220;-60
2023/05/28 01:09:58;;;;;;;4.15;1.95;;;;;;;;;;4992257;28;20213;-59
2023/05/28 01:12:26;;;;;;;3.78;1.73;;;;;;;;;;4997526;28;20213;-59
2023/05/28 01:14:53;;;;;;;2.28;1.90;;;;;;;;;;5003758;28;20235;-60
2023/05/28 01:17:21;;;;;;;4.75;1.85;;;;;;;;;;5003331;28;20552;-59
2023/05/28 01:19:48;;;;;;;1.52;1.48;;;;;;;;;;4990606;28;20209;-60
2023/05/28 01:22:17;;;;;;;1.83;1.60;;;;;;;;;;4988891;28;20209;-60
2023/05/28 01:24:46;;;;;;;1.80;1.70;;;;;;;;;;4996903;28;20697;-61
2023/05/28 01:27:14;;;;;;;2.08;1.58;;;;;;;;;;4992195;28;20214;-60
2023/05/28 01:29:41;;;;;;;1.80;1.70;;;;;;;;;;5001404;28;20220;-59
2023/05/28 01:32:08;;;;;;;3.60;1.73;;;;;;;;;;5006236;28;20271;-61
2023/05/28 01:34:35;;;;;;;2.17;1.52;;;;;;;;;;5004088;28;20222;-59
2023/05/28 01:37:02;;;;;;;1.80;1.50;;;;;;;;;;4993782;28;20200;-58
2023/05/28 01:39:36;;;;;;;1.80;1.67;;;;;;;;;;5004890;28;20287;-59
2023/05/28 01:42:06;;;;;;;3.45;1.80;;;;;;;;;;4996295;28;20760;-59
2023/05/28 01:44:33;;;;;;;3.25;1.60;;;;;;;;;;5002542;28;20209;-59
2023/05/28 01:47:01;;;;;;;2.40;1.50;;;;;;;;;;5003914;28;20225;-59
2023/05/28 01:49:28;;;;;;;1.73;1.50;;;;;;;;;;5001096;28;20588;-59
2023/05/28 01:51:57;;;;;;;4.10;1.50;;;;;;;;;;4992376;28;20324;-59
2023/05/28 01:54:24;;;;;;;1.67;1.50;;;;;;;;;;5001171;28;20287;-59
2023/05/28 01:56:51;;;;;;;2.47;1.63;;;;;;;;;;5001660;28;20264;-59
2023/05/28 01:59:20;;;;;;;2.25;1.83;;;;;;;;;;4989711;28;20213;-59
2023/05/28 02:01:47;;;;;;;3.42;1.70;;;;;;;;;;5002073;28;20804;-60
2023/05/28 02:04:14;;;;;;;2.75;1.45;;;;;;;;;;5007486;28;20209;-60
2023/05/28 02:06:41;;;;;;;1.83;1.70;;;;;;;;;;5007913;28;20282;-59
2023/05/28 02:09:08;;;;;;;1.73;1.47;;;;;;;;;;4997550;28;20300;-60
2023/05/28 02:11:35;;;;;;;1.48;1.38;;;;;;;;;;4994638;28;20217;-59
2023/05/28 02:14:03;;;;;;;1.98;1.88;;;;;;;;;;5005320;28;20687;-59
2023/05/28 02:16:32;;;;;;;1.80;1.60;;;;;;;;;;5007207;28;20215;-60
2023/05/28 02:18:59;;;;;;;1.73;1.58;;;;;;;;;;5005902;28;20306;-59
2023/05/28 02:21:28;;;;;;;2.88;1.70;;;;;;;;;;5006096;28;20323;-60
2023/05/28 02:23:55;;;;;;;1.90;1.50;;;;;;;;;;5003355;28;20747;-60
2023/05/28 02:26:22;;;;;;;2.55;1.60;;;;;;;;;;5003452;28;20241;-60
2023/05/28 02:28:49;;;;;;;3.58;2.15;;;;;;;;;;5004870;28;20209;-60
2023/05/28 02:31:16;;;;;;;2.53;1.67;;;;;;;;;;5007828;28;20224;-60
2023/05/28 02:33:44;;;;;;;3.03;1.80;;;;;;;;;;5004913;28;20267;-60
2023/05/28 02:36:12;;;;;;;1.70;1.60;;;;;;;;;;4990425;28;20248;-60
2023/05/28 02:38:39;;;;;;;1.60;1.50;;;;;;;;;;5004155;28;20295;-59
2023/05/28 02:41:06;;;;;;;2.30;1.70;;;;;;;;;;4991593;28;20237;-59
2023/05/28 02:43:34;;;;;;;3.95;1.70;;;;;;;;;;4992417;28;20277;-59
2023/05/28 02:46:01;;;;;;;3.53;1.67;;;;;;;;;;4989433;28;20205;-60
2023/05/28 02:48:28;;;;;;;1.93;1.83;;;;;;;;;;5002163;28;20209;-59
2023/05/28 02:50:56;;;;;;;2.20;1.53;;;;;;;;;;4997917;28;20735;-59
2023/05/28 02:53:24;;;;;;;2.37;1.67;;;;;;;;;;5005843;28;20205;-59
2023/05/28 02:55:51;;;;;;;1.80;1.63;;;;;;;;;;5000114;28;20291;-60
2023/05/28 02:58:18;;;;;;;1.93;1.83;;;;;;;;;;5004669;28;20205;-60
2023/05/28 03:00:45;;;;;;;2.77;1.97;;;;;;;;;;4991708;28;20206;-59
2023/05/28 03:03:12;;;;;;;1.70;1.60;;;;;;;;;;4992429;28;20221;-59
2023/05/28 03:05:40;;;;;;;4.40;1.70;;;;;;;;;;4998054;28;20233;-59
2023/05/28 03:08:08;;;;;;;1.73;1.60;;;;;;;;;;5004934;28;20205;-60
2023/05/28 03:10:35;;;;;;;2.27;1.63;;;;;;;;;;4991897;28;20249;-60
2023/05/28 03:13:02;;;;;;;1.83;1.70;;;;;;;;;;5009606;28;20216;-59
2023/05/28 03:15:31;;;;;;;3.97;1.90;;;;;;;;;;5009213;28;20232;-59
2023/05/28 03:17:58;;;;;;;3.03;1.30;;;;;;;;;;5009930;28;20239;-60
2023/05/28 03:20:25;;;;;;;1.87;1.53;;;;;;;;;;5006645;28;20251;-59
2023/05/28 03:22:56;;;;;;;1.80;1.70;;;;;;;;;;5000720;28;20710;-59
2023/05/28 03:25:25;;;;;;;3.63;1.80;;;;;;;;;;4996370;28;20284;-59
2023/05/28 03:27:52;;;;;;;1.83;1.63;;;;;;;;;;4992182;28;20213;-59
2023/05/28 03:30:19;;;;;;;2.70;1.60;;;;;;;;;;4994851;28;20201;-59
2023/05/28 03:32:46;;;;;;;1.57;1.47;;;;;;;;;;4991201;28;20210;-59
2023/05/28 03:35:13;;;;;;;2.23;1.67;;;;;;;;;;4998734;28;20229;-60
2023/05/28 03:37:40;;;;;;;3.67;2.00;;;;;;;;;;5009192;28;20217;-59
2023/05/28 03:40:09;;;;;;;2.40;1.70;;;;;;;;;;5008564;28;20656;-59
2023/05/28 03:42:38;;;;;;;2.37;1.80;;;;;;;;;;5009205;28;20407;-59
2023/05/28 03:45:06;;;;;;;3.73;2.00;;;;;;;;;;4996304;28;20218;-60
2023/05/28 03:47:33;;;;;;;3.37;1.90;;;;;;;;;;4993124;28;20771;-59
2023/05/28 03:50:00;;;;;;;3.13;1.80;;;;;;;;;;5003284;28;20659;-58
2023/05/28 03:52:27;;;;;;;1.50;1.40;;;;;;;;;;5000033;28;20233;-59
2023/05/28 03:54:54;;;;;;;2.90;1.83;;;;;;;;;;5002932;28;20233;-59
2023/05/28 03:57:21;;;;;;;3.90;1.80;;;;;;;;;;5007663;28;20209;-59
2023/05/28 03:59:50;;;;;;;2.30;2.10;;;;;;;;;;5005316;28;20205;-59
2023/05/28 04:02:17;;;;;;;1.87;1.73;;;;;;;;;;5009894;28;20217;-59
2023/05/28 04:04:44;;;;;;;9.27;2.03;;;;;;;;;;5008825;28;20566;-59
2023/05/28 04:07:11;;;;;;;1.57;1.57;;;;;;;;;;5004220;28;20202;-59
2023/05/28 04:09:38;;;;;;;2.27;1.90;;;;;;;;;;5001064;28;20212;-59
2023/05/28 04:12:06;;;;;;;7.73;2.03;;;;;;;;;;5009690;28;20217;-59
2023/05/28 04:14:33;;;;;;;1.70;1.70;;;;;;;;;;4999366;28;20201;-59
2023/05/28 04:17:02;;;;;;;2.37;1.77;;;;;;;;;;4989927;28;20209;-59
2023/05/28 04:19:30;;;;;;;1.93;1.83;;;;;;;;;;4999944;28;20240;-59
2023/05/28 04:21:57;;;;;;;1.27;1.27;;;;;;;;;;4993785;28;20236;-59
2023/05/28 04:24:24;;;;;;;2.10;1.83;;;;;;;;;;4991984;28;20210;-59
2023/05/28 04:26:51;;;;;;;1.87;1.67;;;;;;;;;;4999334;28;20254;-59
2023/05/28 04:29:18;;;;;;;4.07;2.20;;;;;;;;;;5005647;28;20205;-59
2023/05/28 04:31:47;;;;;;;3.27;1.50;;;;;;;;;;5008785;28;20224;-59
2023/05/28 04:34:17;;;;;;;1.90;1.80;;;;;;;;;;5006873;28;20799;-58
2023/05/28 04:36:44;;;;;;;2.57;1.80;;;;;;;;;;5005384;28;20221;-59
2023/05/28 04:39:11;;;;;;;1.57;1.50;;;;;;;;;;4999961;28;20667;-59
2023/05/28 04:41:38;;;;;;;3.23;2.00;;;;;;;;;;4995792;28;20220;-59
2023/05/28 04:44:05;;;;;;;2.07;1.60;;;;;;;;;;4999491;28;20213;-58
2023/05/28 04:46:33;;;;;;;4.57;1.83;;;;;;;;;;4995137;28;20212;-58
2023/05/28 04:49:00;;;;;;;3.77;1.63;;;;;;;;;;5003594;28;20228;-59
2023/05/28 04:51:28;;;;;;;2.97;1.53;;;;;;;;;;5006921;28;20213;-59
2023/05/28 04:53:55;;;;;;;4.37;2.27;;;;;;;;;;5006069;28;20221;-59
2023/05/28 04:56:22;;;;;;;2.87;1.70;;;;;;;;;;5007094;28;20287;-59
2023/05/28 04:58:50;;;;;;;6.33;1.63;;;;;;;;;;5007342;28;20769;-59
2023/05/28 05:01:17;;;;;;;2.93;1.77;;;;;;;;;;5001319;28;20577;-59
2023/05/28 05:03:44;;;;;;;6.57;2.20;;;;;;;;;;5008227;28;21056;-59
2023/05/28 05:06:11;;;;;;;4.60;1.83;;;;;;;;;;4992312;28;20228;-59
2023/05/28 05:08:40;;;;;;;4.27;1.97;;;;;;;;;;5000301;28;20271;-58
2023/05/28 05:11:08;;;;;;;2.10;2.00;;;;;;;;;;5006544;28;20247;-60
2023/05/28 05:13:35;;;;;;;1.60;1.50;;;;;;;;;;4998225;28;20794;-58
2023/05/28 05:16:02;;;;;;;1.77;1.63;;;;;;;;;;4988499;28;20283;-59
2023/05/28 05:18:29;;;;;;;2.75;1.75;;;;;;;;;;4988764;28;20598;-59
2023/05/28 05:20:57;;;;;;;3.30;1.63;;;;;;;;;;4989498;28;20730;-58
2023/05/28 05:23:24;;;;;;;3.30;1.70;;;;;;;;;;4989823;28;20213;-59
2023/05/28 05:25:52;;;;;;;5.00;1.85;;;;;;;;;;5002053;28;20599;-59
2023/05/28 05:28:20;;;;;;;1.73;1.63;;;;;;;;;;5006960;28;20255;-58
2023/05/28 05:30:47;;;;;;;2.25;1.55;;;;;;;;;;5006316;28;20287;-58
2023/05/28 05:33:14;;;;;;;1.50;1.40;;;;;;;;;;4991594;28;20217;-58
2023/05/28 05:35:41;;;;;;;1.98;1.88;;;;;;;;;;5002572;28;20240;-58
2023/05/28 05:38:08;;;;;;;2.88;1.83;;;;;;;;;;4993067;28;20210;-60
2023/05/28 05:40:35;;;;;;;2.38;1.70;;;;;;;;;;4998320;28;20766;-58
2023/05/28 05:43:04;;;;;;;1.80;1.70;;;;;;;;;;5007668;28;20262;-58
2023/05/28 05:45:31;;;;;;;1.80;1.38;;;;;;;;;;5001334;28;20766;-58
2023/05/28 05:47:58;;;;;;;2.08;1.90;;;;;;;;;;4989454;28;20217;-59
2023/05/28 05:50:25;;;;;;;3.17;1.73;;;;;;;;;;4995309;28;20208;-58
2023/05/28 05:52:52;;;;;;;1.90;1.80;;;;;;;;;;5007374;28;20236;-59
2023/05/28 05:55:19;;;;;;;2.25;1.42;;;;;;;;;;4998561;28;20230;-59
2023/05/28 05:57:46;;;;;;;1.90;1.70;;;;;;;;;;5006647;28;20251;-58
2023/05/28 06:00:15;;;;;;;2.05;1.67;;;;;;;;;;4999447;28;20684;-58
2023/05/28 06:02:42;;;;;;;1.95;1.52;;;;;;;;;;5005608;28;20214;-59
2023/05/28 06:05:09;;;;;;;4.97;1.58;;;;;;;;;;4999589;28;20676;-58
2023/05/28 06:07:36;;;;;;;2.42;1.75;;;;;;;;;;4990423;28;20852;-58
2023/05/28 06:10:03;;;;;;;3.80;1.65;;;;;;;;;;4991556;28;20217;-59
2023/05/28 06:12:31;;;;;;;1.55;1.38;;;;;;;;;;5002614;28;20223;-59
2023/05/28 06:15:00;;;;;;;2.90;1.30;;;;;;;;;;4998565;28;20220;-59
2023/05/28 06:17:28;;;;;;;2.97;1.55;;;;;;;;;;5006403;28;20567;-59
2023/05/28 06:19:55;;;;;;;1.67;1.60;;;;;;;;;;5006721;28;20205;-59
2023/05/28 06:22:22;;;;;;;2.90;1.40;;;;;;;;;;5005351;28;20219;-59
2023/05/28 06:24:52;;;;;;;3.45;1.25;;;;;;;;;;5006790;28;20224;-59
2023/05/28 06:27:19;;;;;;;1.73;1.60;;;;;;;;;;4997701;28;20224;-58
2023/05/28 06:29:46;;;;;;;1.35;1.25;;;;;;;;;;5006607;28;20224;-58
2023/05/28 06:32:13;;;;;;;5.63;1.55;;;;;;;;;;4999859;28;20205;-59
2023/05/28 06:34:42;;;;;;;1.80;1.50;;;;;;;;;;5007564;28;20758;-59
2023/05/28 06:37:09;;;;;;;1.63;1.52;;;;;;;;;;5002042;28;20302;-58
2023/05/28 06:39:36;;;;;;;1.52;1.42;;;;;;;;;;5007613;28;20221;-58
2023/05/28 06:42:03;;;;;;;1.23;1.23;;;;;;;;;;5001449;28;20267;-58
2023/05/28 06:44:30;;;;;;;1.73;1.48;;;;;;;;;;5005890;28;20209;-58
2023/05/28 06:46:57;;;;;;;1.20;1.10;;;;;;;;;;5005503;28;20225;-59
2023/05/28 06:49:24;;;;;;;3.28;1.40;;;;;;;;;;5001647;28;20212;-59
2023/05/28 06:51:53;;;;;;;1.65;1.35;;;;;;;;;;4987855;28;20248;-62
2023/05/28 06:54:20;;;;;;;1.33;1.10;;;;;;;;;;5002481;28;20217;-62
2023/05/28 06:56:47;;;;;;;1.48;1.38;;;;;;;;;;5006572;28;20232;-62
2023/05/28 06:59:14;;;;;;;1.20;1.00;;;;;;;;;;4996350;28;20213;-61
2023/05/28 07:01:41;;;;;;;3.30;1.25;;;;;;;;;;4988785;28;20731;-61
2023/05/28 07:04:08;;;;;;;2.08;1.52;;;;;;;;;;4999789;28;20255;-61
2023/05/28 07:06:35;;;;;;;1.52;1.13;;;;;;;;;;5005531;28;20201;-61
2023/05/28 07:09:03;;;;;;;1.63;1.48;;;;;;;;;;5005980;28;20271;-62
2023/05/28 07:11:30;;;;;;;2.33;1.55;;;;;;;;;;5001524;28;20364;-62
2023/05/28 07:13:57;;;;;;;1.40;1.30;;;;;;;;;;4986771;28;20281;-62
2023/05/28 07:16:25;;;;;;;1.92;1.77;;;;;;;;;;4997371;28;20225;-61
2023/05/28 07:18:52;;;;;;;2.50;1.45;;;;;;;;;;5006562;28;20208;-59
2023/05/28 07:21:19;;;;;;;1.95;1.50;;;;;;;;;;4993434;28;20837;-57
2023/05/28 07:23:46;;;;;;;4.15;1.80;;;;;;;;;;4998507;28;20228;-57
2023/05/28 07:26:14;;;;;;;2.00;1.58;;;;;;;;;;4999953;28;20237;-57
2023/05/28 07:28:41;;;;;;;1.60;1.50;;;;;;;;;;4991191;28;20750;-58
2023/05/28 07:31:08;;;;;;;2.22;1.58;;;;;;;;;;4987243;28;20217;-57
2023/05/28 07:33:35;;;;;;;1.95;1.65;;;;;;;;;;5014179;28;20207;-58
2023/05/28 07:36:02;;;;;;;1.52;1.40;;;;;;;;;;5003143;28;20600;-58
2023/05/28 07:38:29;;;;;;;3.92;1.92;;;;;;;;;;5003629;28;20463;-57
2023/05/28 07:40:56;;;;;;;1.90;1.80;;;;;;;;;;5003136;28;20232;-59
2023/05/28 07:43:25;;;;;;;3.42;1.45;;;;;;;;;;5008870;28;20268;-57
2023/05/28 07:45:52;;;;;;;4.38;1.50;;;;;;;;;;5006727;28;20707;-56
2023/05/28 07:48:19;;;;;;;1.33;1.15;;;;;;;;;;5002767;28;20221;-57
2023/05/28 07:50:46;;;;;;;3.22;1.05;;;;;;;;;;4997131;28;20578;-58
2023/05/28 07:53:13;;;;;;;1.63;1.60;;;;;;;;;;4998051;28;20213;-58
2023/05/28 07:55:40;;;;;;;1.48;1.35;;;;;;;;;;5009689;28;20213;-58
2023/05/28 07:58:07;;;;;;;1.83;1.63;;;;;;;;;;5008761;28;20209;-58
2023/05/28 08:00:36;;;;;;;5.30;2.03;;;;;;;;;;5004441;28;20283;-58
2023/05/28 08:03:04;;;;;;;2.13;1.48;;;;;;;;;;5005303;28;20234;-58
2023/05/28 08:05:31;;;;;;;2.28;1.50;;;;;;;;;;5009388;28;20634;-58
2023/05/28 08:07:58;;;;;;;2.03;1.70;;;;;;;;;;5004878;28;20210;-59
2023/05/28 08:10:25;;;;;;;2.30;1.60;;;;;;;;;;5001328;28;20197;-60
2023/05/28 08:12:52;;;;;;;3.17;2.25;;;;;;;;;;5004338;28;20213;-60
2023/05/28 08:15:19;;;;;;;2.20;1.10;;;;;;;;;;5002576;28;20605;-60
2023/05/28 08:17:48;;;;;;;4.47;2.15;;;;;;;;;;5005262;28;20234;-59
2023/05/28 08:20:15;;;;;;;1.88;1.45;;;;;;;;;;4997391;28;20221;-59
2023/05/28 08:22:42;;;;;;;1.42;1.23;;;;;;;;;;4997628;28;20217;-59
2023/05/28 08:25:10;;;;;;;1.95;1.73;;;;;;;;;;4995072;28;20237;-60
2023/05/28 08:27:37;;;;;;;2.03;1.80;;;;;;;;;;5006949;28;20212;-60
2023/05/28 08:30:05;;;;;;;2.25;1.73;;;;;;;;;;5008506;28;20300;-59
2023/05/28 08:32:32;;;;;;;3.00;1.73;;;;;;;;;;5008097;28;20750;-60
2023/05/28 08:35:00;;;;;;;2.53;1.40;;;;;;;;;;4997049;28;20306;-59
2023/05/28 08:37:27;;;;;;;1.70;1.60;;;;;;;;;;4995044;28;20239;-59
2023/05/28 08:39:54;;;;;;;1.55;1.45;;;;;;;;;;5000077;28;20209;-59
2023/05/28 08:42:21;;;;;;;1.58;1.40;;;;;;;;;;5006276;28;20205;-60
2023/05/28 08:44:48;;;;;;;2.08;1.50;;;;;;;;;;5003859;28;20216;-61
2023/05/28 08:47:15;;;;;;;2.83;1.75;;;;;;;;;;5005970;28;20612;-59
2023/05/28 08:49:44;;;;;;;1.77;1.67;;;;;;;;;;5003812;28;20221;-59
2023/05/28 08:52:13;;;;;;;2.17;1.85;;;;;;;;;;5008003;28;20274;-61
2023/05/28 08:54:40;;;;;;;1.13;1.13;;;;;;;;;;5003047;28;20911;-59
2023/05/28 08:57:08;;;;;;;2.60;1.80;;;;;;;;;;4993328;28;20237;-59
2023/05/28 08:59:35;;;;;;;5.80;2.40;;;;;;;;;;5001655;28;20267;-59
2023/05/28 09:02:04;;;;;;;5.18;2.22;;;;;;;;;;5002718;28;20217;-59
2023/05/28 09:04:31;;;;;;;2.72;1.58;;;;;;;;;;4991418;28;20747;-59
2023/05/28 09:06:58;;;;;;;2.58;1.85;;;;;;;;;;4990809;28;20253;-59
2023/05/28 09:09:27;;;;;;;1.90;1.70;;;;;;;;;;5003820;28;20207;-60
2023/05/28 09:11:58;;;;;;;3.55;1.70;;;;;;;;;;5010004;28;20921;-60
2023/05/28 09:14:25;;;;;;;2.78;1.88;;;;;;;;;;4999315;28;20209;-60
2023/05/28 09:16:52;;;;;;;2.42;1.67;;;;;;;;;;5000816;28;20237;-60
2023/05/28 09:19:20;;;;;;;1.67;1.58;;;;;;;;;;5005893;28;20221;-60
2023/05/28 09:21:53;;;;;;;1.95;1.65;;;;;;;;;;4988858;28;20237;-61
2023/05/28 09:24:20;;;;;;;3.78;1.58;;;;;;;;;;4988399;28;20240;-60
2023/05/28 09:26:50;;;;;;;2.88;1.77;;;;;;;;;;4988571;28;20249;-60
2023/05/28 09:29:17;;;;;;;1.95;1.48;;;;;;;;;;4990966;28;20201;-62
2023/05/28 09:31:46;;;;;;;5.72;1.83;;;;;;;;;;4995052;28;20353;-60
2023/05/28 09:34:13;;;;;;;2.58;1.50;;;;;;;;;;4994871;28;20217;-60
2023/05/28 09:36:40;;;;;;;2.45;2.08;;;;;;;;;;4993515;28;20288;-60
2023/05/28 09:39:08;;;;;;;1.85;1.75;;;;;;;;;;5005999;28;20209;-60
2023/05/28 09:41:40;;;;;;;3.65;1.27;;;;;;;;;;5002911;28;20316;-61
2023/05/28 09:44:10;;;;;;;1.10;1.00;;;;;;;;;;4995081;28;20210;-61
2023/05/28 09:46:37;;;;;;;1.90;1.80;;;;;;;;;;5007574;28;20197;-61
2023/05/28 09:49:05;;;;;;;1.48;1.40;;;;;;;;;;5007522;28;20260;-60
2023/05/28 09:51:33;;;;;;;2.95;1.90;;;;;;;;;;5007019;28;20213;-60
2023/05/28 09:54:01;;;;;;;3.20;1.83;;;;;;;;;;4989530;28;20748;-61
2023/05/28 09:56:31;;;;;;;2.80;1.70;;;;;;;;;;4987712;28;20213;-60
2023/05/28 09:58:58;;;;;;;1.80;1.30;;;;;;;;;;4989189;28;20309;-60
2023/05/28 10:01:28;;;;;;;2.35;1.40;;;;;;;;;;4993860;28;20214;-60
2023/05/28 10:03:59;;;;;;;1.35;1.30;;;;;;;;;;5006881;28;20205;-60
2023/05/28 10:06:27;;;;;;;1.52;1.48;;;;;;;;;;4991898;28;20213;-60
2023/05/28 10:08:55;;;;;;;2.53;1.60;;;;;;;;;;5006573;28;20209;-60
2023/05/28 10:11:23;;;;;;;3.40;1.38;;;;;;;;;;4997026;28;20224;-60
2023/05/28 10:13:50;;;;;;;3.95;2.10;;;;;;;;;;4987942;28;20642;-60
2023/05/28 10:16:17;;;;;;;1.88;1.77;;;;;;;;;;4999451;28;20260;-60
2023/05/28 10:18:46;;;;;;;4.70;1.30;;;;;;;;;;5006326;28;20663;-60
2023/05/28 10:21:13;;;;;;;1.70;1.60;;;;;;;;;;4999045;28;20404;-61
2023/05/28 10:23:41;;;;;;;2.22;1.45;;;;;;;;;;5006945;28;20296;-62
2023/05/28 10:26:09;;;;;;;2.25;1.70;;;;;;;;;;4994716;28;20292;-61
2023/05/28 10:28:36;;;;;;;1.98;1.85;;;;;;;;;;4995207;28;20590;-61
2023/05/28 10:31:04;;;;;;;3.22;1.50;;;;;;;;;;4998979;28;20424;-61
2023/05/28 10:33:32;;;;;;;3.33;1.50;;;;;;;;;;4987917;28;20719;-61
2023/05/28 10:36:01;;;;;;;1.30;1.30;;;;;;;;;;4987556;28;20264;-61
2023/05/28 10:38:28;;;;;;;1.60;1.50;;;;;;;;;;5003732;28;20235;-60
2023/05/28 10:41:01;;;;;;;1.50;1.40;;;;;;;;;;4993661;28;20688;-61
2023/05/28 10:43:45;;;;;;;1.70;1.60;;;;;;;;;;4997889;28;20632;-60
2023/05/28 10:46:12;;;;;;;1.92;1.80;;;;;;;;;;4986984;28;20271;-60
2023/05/28 10:48:40;;;;;;;2.05;1.80;;;;;;;;;;4999582;28;20209;-61
2023/05/28 10:51:10;;;;;;;3.63;1.70;;;;;;;;;;5004973;28;20356;-60
2023/05/28 10:53:37;;;;;;;3.03;1.48;;;;;;;;;;4993572;28;20876;-60
2023/05/28 10:56:04;;;;;;;2.45;1.83;;;;;;;;;;4994940;28;20269;-59
2023/05/28 10:58:34;;;;;;;1.83;1.58;;;;;;;;;;5005768;28;20265;-60
2023/05/28 11:01:04;;;;;;;3.38;1.70;;;;;;;;;;5001789;28;20258;-60
2023/05/28 11:03:41;;;;;;;1.80;1.70;;;;;;;;;;5006696;28;20271;-60
2023/05/28 11:06:10;;;;;;;1.90;1.80;;;;;;;;;;5014312;28;20213;-59
2023/05/28 11:08:47;;;;;;;2.75;1.52;;;;;;;;;;5009457;28;20571;-63
2023/05/28 11:11:14;;;;;;;1.73;1.60;;;;;;;;;;4995621;28;20205;-61
2023/05/28 11:13:43;;;;;;;1.48;1.38;;;;;;;;;;5004221;28;20217;-59
2023/05/28 11:16:11;;;;;;;2.72;1.88;;;;;;;;;;5000034;28;20596;-59
2023/05/28 11:18:38;;;;;;;1.35;1.35;;;;;;;;;;4994189;28;20236;-59
2023/05/28 11:21:07;;;;;;;2.30;1.70;;;;;;;;;;4994732;28;20232;-60
2023/05/28 11:23:36;;;;;;;2.70;1.73;;;;;;;;;;5004943;28;20264;-60
2023/05/28 11:26:03;;;;;;;3.45;1.80;;;;;;;;;;5006542;28;20245;-60
2023/05/28 11:28:30;;;;;;;3.08;2.25;;;;;;;;;;4999368;28;20205;-61
2023/05/28 11:30:58;;;;;;;1.45;1.35;;;;;;;;;;4999226;28;20299;-61
2023/05/28 11:33:28;;;;;;;2.10;2.00;;;;;;;;;;5008912;28;20303;-61
2023/05/28 11:35:59;;;;;;;3.22;1.63;;;;;;;;;;5001327;28;20213;-61
2023/05/28 11:38:26;;;;;;;2.28;1.73;;;;;;;;;;5006162;28;20231;-60
2023/05/28 11:41:00;;;;;;;4.15;1.88;;;;;;;;;;5004749;28;20213;-60
2023/05/28 11:43:27;;;;;;;2.20;1.60;;;;;;;;;;4990146;28;20303;-59
2023/05/28 11:45:57;;;;;;;2.40;2.05;;;;;;;;;;4991773;28;20588;-60
2023/05/28 11:48:24;;;;;;;1.98;1.60;;;;;;;;;;4991048;28;20264;-60
2023/05/28 11:50:57;;;;;;;1.80;1.70;;;;;;;;;;4992180;28;20213;-60
2023/05/28 11:53:24;;;;;;;2.90;1.80;;;;;;;;;;4992164;28;20217;-60
2023/05/28 11:55:51;;;;;;;3.72;2.05;;;;;;;;;;4996276;28;20597;-60
2023/05/28 11:58:21;;;;;;;1.88;1.77;;;;;;;;;;4999628;28;20240;-60
2023/05/28 12:00:48;;;;;;;2.40;2.20;;;;;;;;;;4999689;28;20210;-60
2023/05/28 12:03:15;;;;;;;2.28;1.63;;;;;;;;;;4989457;28;20213;-60
2023/05/28 12:05:42;;;;;;;2.05;1.95;;;;;;;;;;5000679;28;20217;-59
2023/05/28 12:08:12;;;;;;;3.25;2.17;;;;;;;;;;5003396;28;20256;-59
2023/05/28 12:10:39;;;;;;;1.77;1.23;;;;;;;;;;4998607;28;20667;-60
2023/05/28 12:13:06;;;;;;;2.33;2.20;;;;;;;;;;5006092;28;20427;-59
2023/05/28 12:15:35;;;;;;;2.30;2.00;;;;;;;;;;5007341;28;20316;-60
2023/05/28 12:18:04;;;;;;;3.63;1.77;;;;;;;;;;5003374;28;20237;-59
2023/05/28 12:20:32;;;;;;;2.25;2.05;;;;;;;;;;4996710;28;20245;-59
2023/05/28 12:23:04;;;;;;;2.10;2.00;;;;;;;;;;5008027;28;20205;-59
2023/05/28 12:25:36;;;;;;;3.83;2.05;;;;;;;;;;4998399;28;20238;-59
2023/05/28 12:28:03;;;;;;;3.88;2.38;;;;;;;;;;5006379;28;20205;-59
2023/05/28 12:30:30;;;;;;;1.88;1.65;;;;;;;;;;5007001;28;20213;-61
2023/05/28 12:32:58;;;;;;;3.28;2.30;;;;;;;;;;5024348;28;20879;-60
2023/05/28 12:35:25;;;;;;;2.70;1.88;;;;;;;;;;4995835;28;20365;-60
2023/05/28 12:37:52;;;;;;;4.53;2.47;;;;;;;;;;4991798;28;20349;-59
2023/05/28 12:40:19;;;;;;;1.92;1.80;;;;;;;;;;4995392;28;20205;-60
2023/05/28 12:42:46;;;;;;;2.10;1.90;;;;;;;;;;5004538;28;20227;-58
2023/05/28 12:45:13;;;;;;;2.50;2.28;;;;;;;;;;5000599;28;20209;-59
2023/05/28 12:47:40;;;;;;;2.95;2.05;;;;;;;;;;5004715;28;20201;-59
2023/05/28 12:50:09;;;;;;;2.10;1.98;;;;;;;;;;4994155;28;20221;-60
2023/05/28 12:52:37;;;;;;;4.90;2.22;;;;;;;;;;4990587;28;20204;-60
2023/05/28 12:55:04;;;;;;;2.63;2.25;;;;;;;;;;4998202;28;20614;-60
2023/05/28 12:57:32;;;;;;;2.38;2.17;;;;;;;;;;4998938;28;20270;-60
2023/05/28 12:59:59;;;;;;;2.55;2.35;;;;;;;;;;5012506;28;20287;-60
2023/05/28 13:02:26;;;;;;;2.30;2.10;;;;;;;;;;5002952;28;20209;-61
2023/05/28 13:04:53;;;;;;;2.20;2.10;;;;;;;;;;4993081;28;20275;-60
2023/05/28 13:07:21;;;;;;;2.03;1.92;;;;;;;;;;5008122;28;20205;-60
2023/05/28 13:09:48;;;;;;;2.45;2.25;;;;;;;;;;5005663;28;20208;-60
2023/05/28 13:12:15;;;;;;;4.28;2.05;;;;;;;;;;5006935;28;21005;-61
2023/05/28 13:14:42;;;;;;;2.47;2.28;;;;;;;;;;4997009;28;20278;-60
2023/05/28 13:17:09;;;;;;;2.78;2.25;;;;;;;;;;5009518;28;20208;-59
2023/05/28 13:19:36;;;;;;;2.65;2.15;;;;;;;;;;5000174;28;20225;-60
2023/05/28 13:22:03;;;;;;;3.00;2.45;;;;;;;;;;5017827;28;20224;-60
2023/05/28 13:24:32;;;;;;;2.25;2.15;;;;;;;;;;5014192;28;20213;-59
2023/05/28 13:26:59;;;;;;;2.45;2.00;;;;;;;;;;5005807;28;20248;-59
2023/05/28 13:29:26;;;;;;;2.97;2.20;;;;;;;;;;4998567;28;20213;-60
2023/05/28 13:31:53;;;;;;;2.80;2.17;;;;;;;;;;5004500;28;20208;-60
2023/05/28 13:34:20;;;;;;;4.15;2.30;;;;;;;;;;4987736;28;20214;-60
2023/05/28 13:36:47;;;;;;;3.13;1.85;;;;;;;;;;5002619;28;20213;-60
2023/05/28 13:39:14;;;;;;;2.17;2.00;;;;;;;;;;5004780;28;20622;-60
2023/05/28 13:41:44;;;;;;;3.63;2.30;;;;;;;;;;4998552;28;20225;-64
2023/05/28 13:44:13;;;;;;;3.75;2.15;;;;;;;;;;5006093;28;20747;-63
2023/05/28 13:46:40;;;;;;;2.83;2.47;;;;;;;;;;5003824;28;20213;-60
2023/05/28 13:49:07;;;;;;;2.33;2.03;;;;;;;;;;4997893;28;20665;-60
2023/05/28 13:51:35;;;;;;;2.42;2.22;;;;;;;;;;4989191;28;20216;-61
2023/05/28 13:54:02;;;;;;;3.35;2.78;;;;;;;;;;5005233;28;20213;-60
2023/05/28 13:56:29;;;;;;;2.42;2.20;;;;;;;;;;5006768;28;20212;-61
2023/05/28 13:58:57;;;;;;;3.65;2.60;;;;;;;;;;5003305;28;20240;-60
2023/05/28 14:01:24;;;;;;;1.88;1.77;;;;;;;;;;5003229;28;20697;-60
2023/05/28 14:03:51;;;;;;;2.53;2.00;;;;;;;;;;5001122;28;20219;-60
2023/05/28 14:06:18;;;;;;;4.45;2.30;;;;;;;;;;5009233;28;20209;-61
2023/05/28 14:08:45;;;;;;;2.47;2.28;;;;;;;;;;5002581;28;20205;-60
2023/05/28 14:11:12;;;;;;;2.20;2.00;;;;;;;;;;5005540;28;20682;-60
2023/05/28 14:13:39;;;;;;;3.63;2.38;;;;;;;;;;5003773;28;20259;-60
2023/05/28 14:16:08;;;;;;;2.60;2.17;;;;;;;;;;5006041;28;20585;-60
2023/05/28 14:21:37;;;;;;;3.38;2.53;;;;;;;;;;4993420;28;20233;-58
2023/05/28 14:24:04;;;;;;;1.75;1.65;;;;;;;;;;5027249;28;20223;-62
2023/05/28 14:26:31;;;;;;;2.47;2.15;;;;;;;;;;5003265;28;20245;-60
2023/05/28 14:28:58;;;;;;;3.15;2.10;;;;;;;;;;5006319;28;20623;-60
2023/05/28 14:31:27;;;;;;;2.42;2.33;;;;;;;;;;4994483;28;20646;-60
2023/05/28 14:33:54;;;;;;;2.55;2.28;;;;;;;;;;4994856;28;20221;-59
2023/05/28 14:36:21;;;;;;;3.45;2.75;;;;;;;;;;5006655;28;20209;-60
2023/05/28 14:38:48;;;;;;;2.55;2.35;;;;;;;;;;5006425;28;20237;-60
2023/05/28 14:41:15;;;;;;;3.45;2.72;;;;;;;;;;5000378;28;20219;-60
2023/05/28 14:43:42;;;;;;;2.78;2.58;;;;;;;;;;4996322;28;20965;-60
2023/05/28 14:46:09;;;;;;;2.95;2.55;;;;;;;;;;4995313;28;20206;-60
2023/05/28 14:48:37;;;;;;;2.17;2.08;;;;;;;;;;4996222;28;20213;-60
2023/05/28 14:51:06;;;;;;;2.20;2.10;;;;;;;;;;5015657;28;20208;-60